createdAt,value
2023-05-06T03:58:56.124Z,1012.50
2023-05-06T03:59:56.175Z,1012.46
2023-05-06T04:00:56.282Z,1012.44
2023-05-06T04:01:56.510Z,1012.43
2023-05-06T04:02:56.688Z,1012.42
2023-05-06T04:03:57.761Z,1012.37
2023-05-06T04:04:56.782Z,1012.34
2023-05-06T04:05:57.949Z,1012.37
2023-05-06T04:06:57.054Z,1012.36
2023-05-06T04:07:57.257Z,1012.37
2023-05-06T04:08:57.285Z,1012.36
2023-05-06T04:09:57.476Z,1012.42
2023-05-06T04:10:58.276Z,1012.37
2023-05-06T04:11:57.748Z,1012.38
2023-05-06T04:12:58.966Z,1012.37
2023-05-06T04:13:58.017Z,1012.34
2023-05-06T04:14:58.172Z,1012.37
2023-05-06T04:15:58.296Z,1012.36
2023-05-06T04:16:59.358Z,1012.38
2023-05-06T04:17:58.597Z,1012.36
2023-05-06T04:18:58.637Z,1012.38
2023-05-06T04:19:58.783Z,1012.40
2023-05-06T04:20:58.860Z,1012.42
2023-05-06T04:21:59.003Z,1012.42
2023-05-06T04:22:59.166Z,1012.43
2023-05-06T04:23:59.309Z,1012.43
2023-05-06T04:24:59.501Z,1012.48
2023-05-06T04:25:59.616Z,1012.52
2023-05-06T04:26:59.697Z,1012.54
2023-05-06T04:27:59.868Z,1012.52
2023-05-06T04:28:59.978Z,1012.53
2023-05-06T04:30:00.162Z,1012.50
2023-05-06T04:31:00.199Z,1012.55
2023-05-06T04:32:00.443Z,1012.56
2023-05-06T04:33:01.515Z,1012.51
2023-05-06T04:34:00.777Z,1012.49
2023-05-06T04:35:00.744Z,1012.52
2023-05-06T04:36:01.905Z,1012.59
2023-05-06T04:37:01.046Z,1012.55
2023-05-06T04:38:01.204Z,1012.56
2023-05-06T04:39:01.268Z,1012.52
2023-05-06T04:40:01.446Z,1012.60
2023-05-06T04:41:01.595Z,1012.58
2023-05-06T04:42:01.710Z,1012.55
2023-05-06T04:43:01.873Z,1012.55
2023-05-06T04:44:01.987Z,1012.56
2023-05-06T04:45:02.074Z,1012.56
2023-05-06T04:46:02.258Z,1012.55
2023-05-06T04:47:03.942Z,1012.58
2023-05-06T04:48:02.573Z,1012.57
2023-05-06T04:49:02.704Z,1012.60
2023-05-06T04:50:02.831Z,1012.56
2023-05-06T04:51:02.982Z,1012.58
2023-05-06T04:52:03.188Z,1012.61
2023-05-06T04:53:03.254Z,1012.56
2023-05-06T04:54:04.078Z,1012.56
2023-05-06T04:55:03.529Z,1012.61
2023-05-06T04:56:03.696Z,1012.61
2023-05-06T04:57:03.826Z,1012.62
2023-05-06T04:58:04.010Z,1012.61
2023-05-06T04:59:04.816Z,1012.60
2023-05-06T05:00:04.254Z,1012.63
2023-05-06T05:01:04.453Z,1012.65
2023-05-06T05:02:04.562Z,1012.67
2023-05-06T05:03:04.732Z,1012.68
2023-05-06T05:04:04.754Z,1012.66
2023-05-06T05:05:04.907Z,1012.70
2023-05-06T05:06:05.968Z,1012.73
2023-05-06T05:07:05.236Z,1012.79
2023-05-06T05:08:06.059Z,1012.80
2023-05-06T05:09:05.447Z,1012.81
2023-05-06T05:10:05.650Z,1012.85
2023-05-06T05:11:05.740Z,1012.88
2023-05-06T05:12:05.877Z,1012.90
2023-05-06T05:13:06.181Z,1012.93
2023-05-06T05:14:06.177Z,1012.95
2023-05-06T05:15:06.323Z,1012.98
2023-05-06T05:16:06.466Z,1012.97
2023-05-06T05:17:07.434Z,1012.98
2023-05-06T05:18:08.633Z,1013.04
2023-05-06T05:19:09.064Z,1013.03
2023-05-06T05:20:06.988Z,1013.00
2023-05-06T05:21:07.061Z,1013.00
2023-05-06T05:22:07.205Z,1012.95
2023-05-06T05:23:07.340Z,1012.98
2023-05-06T05:24:07.570Z,1012.97
2023-05-06T05:25:08.198Z,1013.00
2023-05-06T05:26:07.726Z,1013.02
2023-05-06T05:27:07.863Z,1013.02
2023-05-06T05:28:07.980Z,1013.02
2023-05-06T05:29:08.140Z,1013.06
2023-05-06T05:30:08.394Z,1013.10
2023-05-06T05:32:24.929Z,1013.08
2023-05-06T05:33:25.136Z,1013.10
2023-05-06T05:34:25.134Z,1013.10
2023-05-06T05:35:25.244Z,1013.09
2023-05-06T05:36:25.414Z,1013.08
2023-05-06T05:37:25.475Z,1013.12
2023-05-06T05:38:25.605Z,1013.06
2023-05-06T05:39:25.737Z,1013.12
2023-05-06T05:40:26.822Z,1013.12
2023-05-06T05:41:25.976Z,1013.16
2023-05-06T05:42:26.119Z,1013.16
2023-05-06T05:43:26.231Z,1013.15
2023-05-06T05:44:26.383Z,1013.14
2023-05-06T05:45:26.487Z,1013.13
2023-05-06T05:46:26.692Z,1013.13
2023-05-06T05:47:26.751Z,1013.15
2023-05-06T05:48:26.872Z,1013.11
2023-05-06T05:49:27.012Z,1013.11
2023-05-06T05:50:27.216Z,1013.12
2023-05-06T05:51:27.286Z,1013.11
2023-05-06T05:52:27.414Z,1013.09
2023-05-06T05:53:27.529Z,1013.13
2023-05-06T05:54:27.674Z,1013.14
2023-05-06T05:55:27.826Z,1013.11
2023-05-06T05:56:27.917Z,1013.11
2023-05-06T05:57:28.074Z,1013.13
2023-05-06T05:58:28.199Z,1013.14
2023-05-06T05:59:28.368Z,1013.15
2023-05-06T06:00:28.532Z,1013.10
2023-05-06T06:01:28.650Z,1013.09
2023-05-06T06:02:28.854Z,1013.16
2023-05-06T06:03:29.023Z,1013.17
2023-05-06T06:04:29.121Z,1013.14
2023-05-06T06:05:29.175Z,1013.17
2023-05-06T06:06:29.318Z,1013.15
2023-05-06T06:07:29.549Z,1013.15
2023-05-06T06:08:29.616Z,1013.12
2023-05-06T06:09:29.714Z,1013.16
2023-05-06T06:10:29.915Z,1013.13
2023-05-06T06:11:29.957Z,1013.18
2023-05-06T06:12:30.104Z,1013.17
2023-05-06T06:13:30.393Z,1013.19
2023-05-06T06:14:30.346Z,1013.24
2023-05-06T06:15:30.490Z,1013.22
2023-05-06T06:16:30.691Z,1013.24
2023-05-06T06:17:30.860Z,1013.29
2023-05-06T06:18:30.891Z,1013.27
2023-05-06T06:19:31.100Z,1013.30
2023-05-06T06:20:31.212Z,1013.28
2023-05-06T06:21:31.432Z,1013.31
2023-05-06T06:22:31.551Z,1013.35
2023-05-06T06:23:31.716Z,1013.35
2023-05-06T06:24:31.798Z,1013.33
2023-05-06T06:25:32.631Z,1013.35
2023-05-06T06:26:32.101Z,1013.31
2023-05-06T06:27:32.944Z,1013.33
2023-05-06T06:28:32.264Z,1013.32
2023-05-06T06:29:32.358Z,1013.27
2023-05-06T06:30:32.504Z,1013.28
2023-05-06T06:31:32.666Z,1013.29
2023-05-06T06:32:33.078Z,1013.35
2023-05-06T06:33:32.937Z,1013.33
2023-05-06T06:34:33.081Z,1013.32
2023-05-06T06:35:35.005Z,1013.30
2023-05-06T06:36:33.297Z,1013.25
2023-05-06T06:37:33.420Z,1013.30
2023-05-06T06:38:33.653Z,1013.22
2023-05-06T06:39:33.737Z,1013.25
2023-05-06T06:40:33.869Z,1013.20
2023-05-06T06:41:34.011Z,1013.24
2023-05-06T06:42:34.252Z,1013.20
2023-05-06T06:43:34.276Z,1013.22
2023-05-06T06:44:34.343Z,1013.20
2023-05-06T06:45:34.559Z,1013.25
2023-05-06T06:46:34.687Z,1013.27
2023-05-06T06:47:34.818Z,1013.27
2023-05-06T06:48:34.941Z,1013.28
2023-05-06T06:49:35.125Z,1013.28
2023-05-06T06:50:35.207Z,1013.26
2023-05-06T06:51:35.349Z,1013.25
2023-05-06T06:52:35.493Z,1013.25
2023-05-06T06:53:35.638Z,1013.28
2023-05-06T06:54:35.794Z,1013.25
2023-05-06T06:55:36.086Z,1013.29
2023-05-06T06:56:36.977Z,1013.26
2023-05-06T06:57:36.238Z,1013.27
2023-05-06T06:58:36.365Z,1013.31
2023-05-06T06:59:36.542Z,1013.30
2023-05-06T07:00:36.664Z,1013.31
2023-05-06T07:01:36.977Z,1013.32
2023-05-06T07:02:37.034Z,1013.36
2023-05-06T07:03:37.162Z,1013.35
2023-05-06T07:04:37.323Z,1013.32
2023-05-06T07:05:37.289Z,1013.34
2023-05-06T07:06:37.461Z,1013.36
2023-05-06T07:07:37.626Z,1013.32
2023-05-06T07:08:37.754Z,1013.32
2023-05-06T07:09:39.597Z,1013.32
2023-05-06T07:10:38.031Z,1013.37
2023-05-06T07:11:38.107Z,1013.39
2023-05-06T07:12:38.299Z,1013.37
2023-05-06T07:13:38.450Z,1013.38
2023-05-06T07:14:38.535Z,1013.37
2023-05-06T07:15:38.658Z,1013.43
2023-05-06T07:16:38.875Z,1013.42
2023-05-06T07:17:39.128Z,1013.49
2023-05-06T07:18:39.096Z,1013.52
2023-05-06T07:19:39.289Z,1013.46
2023-05-06T07:20:39.382Z,1013.52
2023-05-06T07:21:39.481Z,1013.51
2023-05-06T07:22:39.639Z,1013.56
2023-05-06T07:23:39.808Z,1013.55
2023-05-06T07:24:39.894Z,1013.55
2023-05-06T07:25:39.959Z,1013.54
2023-05-06T07:26:40.135Z,1013.54
2023-05-06T07:27:40.401Z,1013.55
2023-05-06T07:28:40.393Z,1013.58
2023-05-06T07:29:40.546Z,1013.58
2023-05-06T07:30:40.689Z,1013.59
2023-05-06T07:31:40.818Z,1013.59
2023-05-06T07:33:41.072Z,1013.60
2023-05-06T07:34:41.250Z,1013.61
2023-05-06T07:35:41.390Z,1013.58
2023-05-06T07:36:41.556Z,1013.54
2023-05-06T07:37:41.748Z,1013.60
2023-05-06T07:38:41.947Z,1013.64
2023-05-06T07:39:42.029Z,1013.60
2023-05-06T07:40:42.084Z,1013.57
2023-05-06T07:41:42.229Z,1013.64
2023-05-06T07:42:43.215Z,1013.62
2023-05-06T07:43:42.510Z,1013.59
2023-05-06T07:44:42.672Z,1013.58
2023-05-06T07:45:42.794Z,1013.64
2023-05-06T07:46:42.961Z,1013.62
2023-05-06T07:47:43.210Z,1013.66
2023-05-06T07:48:43.163Z,1013.68
2023-05-06T07:49:43.334Z,1013.67
2023-05-06T07:50:43.485Z,1013.66
2023-05-06T07:51:43.623Z,1013.70
2023-05-06T07:52:43.790Z,1013.71
2023-05-06T07:53:43.871Z,1013.75
2023-05-06T07:54:44.982Z,1013.73
2023-05-06T07:55:44.127Z,1013.68
2023-05-06T07:56:44.293Z,1013.71
2023-05-06T07:57:44.425Z,1013.73
2023-05-06T07:58:44.549Z,1013.74
2023-05-06T07:59:44.737Z,1013.74
2023-05-06T08:00:44.926Z,1013.73
2023-05-06T08:01:45.041Z,1013.76
2023-05-06T08:02:45.333Z,1013.78
2023-05-06T08:03:45.398Z,1013.74
2023-05-06T08:04:45.541Z,1013.74
2023-05-06T08:05:45.818Z,1013.81
2023-05-06T08:06:45.729Z,1013.74
2023-05-06T08:07:45.913Z,1013.77
2023-05-06T08:08:45.932Z,1013.76
2023-05-06T08:09:46.057Z,1013.74
2023-05-06T08:10:46.336Z,1013.76
2023-05-06T08:13:02.971Z,1013.74
2023-05-06T08:14:02.987Z,1013.77
2023-05-06T08:15:05.534Z,1013.79
2023-05-06T08:16:03.253Z,1013.74
2023-05-06T08:17:03.396Z,1013.79
2023-05-06T08:18:10.349Z,1013.79
2023-05-06T08:19:04.638Z,1013.78
2023-05-06T08:20:03.747Z,1013.79
2023-05-06T08:21:03.837Z,1013.77
2023-05-06T08:22:04.092Z,1013.84
2023-05-06T08:23:04.117Z,1013.82
2023-05-06T08:24:04.280Z,1013.78
2023-05-06T08:25:04.420Z,1013.78
2023-05-06T08:26:04.633Z,1013.80
2023-05-06T08:27:04.833Z,1013.83
2023-05-06T08:28:04.814Z,1013.85
2023-05-06T08:29:04.997Z,1013.91
2023-05-06T08:30:05.182Z,1013.84
2023-05-06T08:31:05.268Z,1013.87
2023-05-06T08:32:05.568Z,1013.85
2023-05-06T08:33:05.643Z,1013.83
2023-05-06T08:34:05.732Z,1013.86
2023-05-06T08:35:05.830Z,1013.76
2023-05-06T08:36:05.977Z,1013.84
2023-05-06T08:37:06.138Z,1013.82
2023-05-06T08:38:06.205Z,1013.86
2023-05-06T08:39:06.329Z,1013.86
2023-05-06T08:40:06.502Z,1013.91
2023-05-06T08:41:06.628Z,1013.88
2023-05-06T08:42:06.721Z,1013.94
2023-05-06T08:43:06.865Z,1013.95
2023-05-06T08:44:07.008Z,1013.97
2023-05-06T08:45:07.194Z,1013.91
2023-05-06T08:46:07.314Z,1013.97
2023-05-06T08:47:07.366Z,1013.94
2023-05-06T08:48:07.525Z,1013.95
2023-05-06T08:49:07.628Z,1013.90
2023-05-06T08:50:07.797Z,1013.97
2023-05-06T08:51:07.965Z,1013.91
2023-05-06T08:52:08.094Z,1013.90
2023-05-06T08:53:08.216Z,1013.95
2023-05-06T08:54:08.611Z,1013.94
2023-05-06T08:55:08.689Z,1013.94
2023-05-06T08:56:08.801Z,1013.90
2023-05-06T08:57:12.228Z,1013.92
2023-05-06T08:58:08.888Z,1013.92
2023-05-06T08:59:09.004Z,1013.94
2023-05-06T09:00:09.125Z,1013.89
2023-05-06T09:01:09.418Z,1013.95
2023-05-06T09:02:09.442Z,1013.94
2023-05-06T09:03:09.689Z,1013.96
2023-05-06T09:04:09.757Z,1013.94
2023-05-06T09:05:10.098Z,1013.88
2023-05-06T09:06:10.041Z,1013.94
2023-05-06T09:07:10.156Z,1013.97
2023-05-06T09:08:10.307Z,1013.95
2023-05-06T09:09:10.456Z,1013.96
2023-05-06T09:10:10.696Z,1013.96
2023-05-06T09:11:10.627Z,1013.95
2023-05-06T09:12:10.766Z,1014.00
2023-05-06T09:13:10.997Z,1013.95
2023-05-06T09:14:11.068Z,1013.94
2023-05-06T09:15:11.508Z,1013.94
2023-05-06T09:16:11.437Z,1013.93
2023-05-06T09:17:11.605Z,1013.96
2023-05-06T09:18:11.815Z,1013.88
2023-05-06T09:19:11.845Z,1013.89
2023-05-06T09:20:12.011Z,1013.87
2023-05-06T09:21:12.128Z,1013.92
2023-05-06T09:22:12.284Z,1013.89
2023-05-06T09:23:12.398Z,1013.86
2023-05-06T09:24:12.560Z,1013.89
2023-05-06T09:25:13.119Z,1013.86
2023-05-06T09:26:12.738Z,1013.88
2023-05-06T09:27:14.646Z,1013.84
2023-05-06T09:28:12.986Z,1013.91
2023-05-06T09:29:13.172Z,1013.84
2023-05-06T09:30:13.393Z,1013.84
2023-05-06T09:31:13.473Z,1013.82
2023-05-06T09:32:13.608Z,1013.85
2023-05-06T09:33:13.764Z,1013.84
2023-05-06T09:34:13.862Z,1013.83
2023-05-06T09:35:14.231Z,1013.85
2023-05-06T09:36:14.107Z,1013.82
2023-05-06T09:37:14.239Z,1013.81
2023-05-06T09:38:14.350Z,1013.83
2023-05-06T09:39:14.540Z,1013.78
2023-05-06T09:40:14.680Z,1013.76
2023-05-06T09:41:14.813Z,1013.81
2023-05-06T09:42:14.936Z,1013.78
2023-05-06T09:43:15.049Z,1013.82
2023-05-06T09:44:16.138Z,1013.84
2023-05-06T09:45:15.297Z,1013.81
2023-05-06T09:46:15.486Z,1013.82
2023-05-06T09:47:15.614Z,1013.80
2023-05-06T09:48:15.681Z,1013.82
2023-05-06T09:49:15.801Z,1013.85
2023-05-06T09:50:15.979Z,1013.87
2023-05-06T09:51:16.098Z,1013.83
2023-05-06T09:52:16.277Z,1013.84
2023-05-06T09:53:16.431Z,1013.83
2023-05-06T09:54:16.661Z,1013.81
2023-05-06T09:55:16.688Z,1013.87
2023-05-06T09:56:16.816Z,1013.87
2023-05-06T09:57:16.967Z,1013.82
2023-05-06T09:58:17.181Z,1013.84
2023-05-06T09:59:17.263Z,1013.85
2023-05-06T10:00:17.565Z,1013.88
2023-05-06T10:01:32.814Z,1013.83
2023-05-06T10:02:18.864Z,1013.89
2023-05-06T10:13:20.621Z,1013.86
2023-05-06T10:14:20.706Z,1013.85
2023-05-06T10:15:20.780Z,1013.84
2023-05-06T10:16:21.004Z,1013.80
2023-05-06T10:17:21.077Z,1013.78
2023-05-06T10:18:21.270Z,1013.74
2023-05-06T10:19:21.356Z,1013.73
2023-05-06T10:20:21.506Z,1013.71
2023-05-06T10:21:21.624Z,1013.73
2023-05-06T10:22:21.775Z,1013.77
2023-05-06T10:23:21.930Z,1013.74
2023-05-06T10:24:22.069Z,1013.71
2023-05-06T10:25:22.205Z,1013.71
2023-05-06T10:26:22.317Z,1013.73
2023-05-06T10:27:22.439Z,1013.65
2023-05-06T10:28:30.019Z,1013.72
2023-05-06T10:29:23.717Z,1013.72
2023-05-06T10:30:22.912Z,1013.70
2023-05-06T10:31:23.054Z,1013.66
2023-05-06T10:32:23.236Z,1013.70
2023-05-06T10:33:23.327Z,1013.69
2023-05-06T10:34:23.411Z,1013.71
2023-05-06T10:35:23.536Z,1013.70
2023-05-06T10:36:23.673Z,1013.71
2023-05-06T10:37:23.838Z,1013.70
2023-05-06T10:38:23.995Z,1013.67
2023-05-06T10:39:24.066Z,1013.71
2023-05-06T10:40:24.234Z,1013.70
2023-05-06T10:41:24.370Z,1013.69
2023-05-06T10:42:24.533Z,1013.64
2023-05-06T10:43:24.774Z,1013.64
2023-05-06T10:44:24.762Z,1013.68
2023-05-06T10:45:24.914Z,1013.63
2023-05-06T10:46:25.029Z,1013.68
2023-05-06T10:47:25.163Z,1013.64
2023-05-06T10:48:25.283Z,1013.63
2023-05-06T10:49:25.397Z,1013.66
2023-05-06T10:50:25.565Z,1013.66
2023-05-06T10:51:25.673Z,1013.70
2023-05-06T10:52:25.785Z,1013.64
2023-05-06T10:53:25.888Z,1013.64
2023-05-06T10:54:26.047Z,1013.59
2023-05-06T10:55:26.166Z,1013.59
2023-05-06T10:56:26.301Z,1013.62
2023-05-06T10:57:26.433Z,1013.61
2023-05-06T10:58:26.595Z,1013.61
2023-05-06T10:59:26.730Z,1013.62
2023-05-06T11:00:26.841Z,1013.61
2023-05-06T11:01:27.120Z,1013.63
2023-05-06T11:02:27.209Z,1013.55
2023-05-06T11:03:27.353Z,1013.56
2023-05-06T11:04:27.446Z,1013.59
2023-05-06T11:05:27.608Z,1013.56
2023-05-06T11:06:27.748Z,1013.56
2023-05-06T11:07:27.855Z,1013.48
2023-05-06T11:08:27.976Z,1013.53
2023-05-06T11:09:28.138Z,1013.52
2023-05-06T11:10:28.233Z,1013.49
2023-05-06T11:11:28.364Z,1013.53
2023-05-06T11:12:28.505Z,1013.48
2023-05-06T11:13:28.837Z,1013.48
2023-05-06T11:14:28.808Z,1013.45
2023-05-06T11:15:28.920Z,1013.45
2023-05-06T11:16:29.118Z,1013.43
2023-05-06T11:17:29.300Z,1013.52
2023-05-06T11:18:29.367Z,1013.43
2023-05-06T11:19:29.481Z,1013.45
2023-05-06T11:20:29.667Z,1013.45
2023-05-06T11:21:29.767Z,1013.45
2023-05-06T11:22:29.979Z,1013.45
2023-05-06T11:23:30.118Z,1013.39
2023-05-06T11:24:30.240Z,1013.41
2023-05-06T11:25:31.300Z,1013.37
2023-05-06T11:26:30.520Z,1013.40
2023-05-06T11:27:30.650Z,1013.37
2023-05-06T11:28:30.771Z,1013.36
2023-05-06T11:29:30.883Z,1013.33
2023-05-06T11:30:31.000Z,1013.35
2023-05-06T11:31:31.235Z,1013.36
2023-05-06T11:32:32.319Z,1013.34
2023-05-06T11:33:31.460Z,1013.38
2023-05-06T11:34:31.650Z,1013.36
2023-05-06T11:35:31.737Z,1013.32
2023-05-06T11:36:31.939Z,1013.34
2023-05-06T11:37:32.077Z,1013.37
2023-05-06T11:38:32.213Z,1013.37
2023-05-06T11:39:34.912Z,1013.39
2023-05-06T11:40:33.487Z,1013.36
2023-05-06T11:41:32.599Z,1013.36
2023-05-06T11:42:32.705Z,1013.38
2023-05-06T11:43:32.832Z,1013.44
2023-05-06T11:44:33.000Z,1013.37
2023-05-06T11:45:33.134Z,1013.40
2023-05-06T11:46:33.369Z,1013.45
2023-05-06T11:47:33.430Z,1013.40
2023-05-06T11:48:33.544Z,1013.41
2023-05-06T11:49:35.525Z,1013.41
2023-05-06T11:50:33.793Z,1013.37
2023-05-06T11:51:33.967Z,1013.43
2023-05-06T11:52:34.049Z,1013.44
2023-05-06T11:53:34.200Z,1013.41
2023-05-06T11:54:34.400Z,1013.42
2023-05-06T11:55:34.489Z,1013.39
2023-05-06T11:56:34.658Z,1013.42
2023-05-06T11:57:34.757Z,1013.39
2023-05-06T11:58:34.869Z,1013.39
2023-05-06T11:59:35.047Z,1013.38
2023-05-06T12:00:35.202Z,1013.38
2023-05-06T12:01:35.294Z,1013.37
2023-05-06T12:02:35.437Z,1013.41
2023-05-06T12:03:35.694Z,1013.38
2023-05-06T12:04:35.875Z,1013.42
2023-05-06T12:05:35.910Z,1013.41
2023-05-06T12:06:36.040Z,1013.44
2023-05-06T12:07:36.178Z,1013.41
2023-05-06T12:08:36.285Z,1013.44
2023-05-06T12:09:36.401Z,1013.52
2023-05-06T12:10:36.508Z,1013.68
2023-05-06T12:11:36.681Z,1013.73
2023-05-06T12:12:36.841Z,1013.77
2023-05-06T12:13:37.271Z,1013.69
2023-05-06T12:14:37.185Z,1013.61
2023-05-06T12:15:37.328Z,1013.60
2023-05-06T12:16:37.337Z,1013.63
2023-05-06T12:17:37.469Z,1013.60
2023-05-06T12:18:37.575Z,1013.60
2023-05-06T12:19:37.664Z,1013.60
2023-05-06T12:20:37.820Z,1013.54
2023-05-06T12:21:37.885Z,1013.50
2023-05-06T12:22:37.992Z,1013.45
2023-05-06T12:23:38.159Z,1013.46
2023-05-06T12:24:38.265Z,1013.44
2023-05-06T12:25:38.445Z,1013.41
2023-05-06T12:26:38.591Z,1013.43
2023-05-06T12:27:38.703Z,1013.37
2023-05-06T12:28:38.892Z,1013.38
2023-05-06T12:29:39.017Z,1013.40
2023-05-06T12:30:39.157Z,1013.36
2023-05-06T12:31:39.297Z,1013.36
2023-05-06T12:33:57.134Z,1013.40
2023-05-06T12:35:04.998Z,1013.48
2023-05-06T12:35:55.186Z,1013.47
2023-05-06T12:36:55.302Z,1013.43
2023-05-06T12:37:55.452Z,1013.46
2023-05-06T12:38:55.582Z,1013.40
2023-05-06T12:39:58.471Z,1013.44
2023-05-06T12:40:55.810Z,1013.36
2023-05-06T12:41:56.654Z,1013.34
2023-05-06T12:42:56.960Z,1013.38
2023-05-06T12:43:56.113Z,1013.35
2023-05-06T12:44:56.296Z,1013.35
2023-05-06T12:45:57.836Z,1013.34
2023-05-06T12:46:56.476Z,1013.32
2023-05-06T12:47:56.706Z,1013.33
2023-05-06T12:48:56.732Z,1013.37
2023-05-06T12:49:56.853Z,1013.32
2023-05-06T12:50:56.955Z,1013.34
2023-05-06T12:51:57.061Z,1013.35
2023-05-06T12:52:57.195Z,1013.35
2023-05-06T12:53:58.242Z,1013.40
2023-05-06T12:54:57.441Z,1013.35
2023-05-06T12:55:57.562Z,1013.38
2023-05-06T12:56:57.700Z,1013.37
2023-05-06T12:57:58.019Z,1013.29
2023-05-06T12:58:57.969Z,1013.34
2023-05-06T12:59:58.079Z,1013.31
2023-05-06T13:00:58.257Z,1013.27
2023-05-06T13:01:58.321Z,1013.29
2023-05-06T13:02:58.599Z,1013.29
2023-05-06T13:03:58.559Z,1013.27
2023-05-06T13:04:58.775Z,1013.23
2023-05-06T13:05:58.890Z,1013.20
2023-05-06T13:06:59.050Z,1013.20
2023-05-06T13:07:59.118Z,1013.25
2023-05-06T13:08:59.221Z,1013.29
2023-05-06T13:09:59.451Z,1013.29
2023-05-06T13:10:59.540Z,1013.24
2023-05-06T13:11:59.647Z,1013.20
2023-05-06T13:12:59.804Z,1013.22
2023-05-06T13:13:59.875Z,1013.21
2023-05-06T13:15:00.006Z,1013.22
2023-05-06T13:16:00.159Z,1013.26
2023-05-06T13:17:00.335Z,1013.22
2023-05-06T13:18:00.492Z,1013.24
2023-05-06T13:19:02.554Z,1013.20
2023-05-06T13:20:01.234Z,1013.24
2023-05-06T13:21:00.895Z,1013.17
2023-05-06T13:22:01.314Z,1013.19
2023-05-06T13:23:01.200Z,1013.16
2023-05-06T13:24:01.261Z,1013.17
2023-05-06T13:25:01.387Z,1013.15
2023-05-06T13:26:05.163Z,1013.18
2023-05-06T13:27:01.661Z,1013.16
2023-05-06T13:28:01.736Z,1013.13
2023-05-06T13:29:01.906Z,1013.08
2023-05-06T13:30:01.990Z,1013.12
2023-05-06T13:31:02.181Z,1013.10
2023-05-06T13:32:02.228Z,1013.06
2023-05-06T13:33:02.449Z,1013.04
2023-05-06T13:34:02.472Z,1013.08
2023-05-06T13:35:02.624Z,1013.04
2023-05-06T13:36:05.101Z,1013.09
2023-05-06T13:37:02.857Z,1013.06
2023-05-06T13:38:02.955Z,1013.05
2023-05-06T13:39:03.068Z,1013.05
2023-05-06T13:40:03.207Z,1013.03
2023-05-06T13:41:03.348Z,1012.97
2023-05-06T13:42:04.019Z,1012.97
2023-05-06T13:43:03.556Z,1012.95
2023-05-06T13:44:03.684Z,1013.04
2023-05-06T13:45:03.848Z,1012.98
2023-05-06T13:46:04.031Z,1012.90
2023-05-06T13:47:04.120Z,1012.96
2023-05-06T13:48:04.223Z,1012.93
2023-05-06T13:49:04.328Z,1012.94
2023-05-06T13:50:04.481Z,1012.92
2023-05-06T13:51:05.335Z,1012.93
2023-05-06T13:52:07.119Z,1012.91
2023-05-06T13:53:05.518Z,1012.95
2023-05-06T13:54:04.968Z,1012.92
2023-05-06T13:55:05.079Z,1012.90
2023-05-06T13:56:05.187Z,1012.89
2023-05-06T13:57:05.287Z,1012.90
2023-05-06T13:58:05.422Z,1012.85
2023-05-06T13:59:06.507Z,1012.87
2023-05-06T14:00:05.719Z,1012.89
2023-05-06T14:01:07.553Z,1012.85
2023-05-06T14:02:09.082Z,1012.84
2023-05-06T14:03:06.173Z,1012.88
2023-05-06T14:04:06.271Z,1012.83
2023-05-06T14:05:06.412Z,1012.82
2023-05-06T14:07:22.064Z,1012.78
2023-05-06T14:08:22.163Z,1012.80
2023-05-06T14:09:27.908Z,1012.78
2023-05-06T14:10:22.462Z,1012.77
2023-05-06T14:11:22.507Z,1012.78
2023-05-06T14:12:23.585Z,1012.81
2023-05-06T14:13:23.809Z,1012.80
2023-05-06T14:14:22.930Z,1012.79
2023-05-06T14:15:23.068Z,1012.76
2023-05-06T14:16:23.311Z,1012.75
2023-05-06T14:17:23.348Z,1012.71
2023-05-06T14:18:25.366Z,1012.74
2023-05-06T14:19:24.866Z,1012.72
2023-05-06T14:20:23.666Z,1012.75
2023-05-06T14:21:23.780Z,1012.74
2023-05-06T14:22:23.881Z,1012.74
2023-05-06T14:23:24.046Z,1012.76
2023-05-06T14:24:24.206Z,1012.77
2023-05-06T14:25:24.290Z,1012.75
2023-05-06T14:26:24.435Z,1012.78
2023-05-06T14:27:24.531Z,1012.83
2023-05-06T14:28:24.651Z,1012.78
2023-05-06T14:29:24.763Z,1012.78
2023-05-06T14:30:24.936Z,1012.81
2023-05-06T14:31:25.133Z,1012.83
2023-05-06T14:32:25.177Z,1012.81
2023-05-06T14:33:25.301Z,1012.77
2023-05-06T14:34:25.400Z,1012.74
2023-05-06T14:35:25.635Z,1012.72
2023-05-06T14:36:25.611Z,1012.72
2023-05-06T14:37:26.757Z,1012.70
2023-05-06T14:38:25.910Z,1012.65
2023-05-06T14:39:26.040Z,1012.69
2023-05-06T14:40:26.168Z,1012.69
2023-05-06T14:41:26.278Z,1012.63
2023-05-06T14:42:27.353Z,1012.64
2023-05-06T14:43:26.591Z,1012.68
2023-05-06T14:44:27.279Z,1012.61
2023-05-06T14:45:26.915Z,1012.63
2023-05-06T14:46:29.414Z,1012.62
2023-05-06T14:47:27.124Z,1012.62
2023-05-06T14:48:27.240Z,1012.63
2023-05-06T14:49:27.346Z,1012.57
2023-05-06T14:50:27.453Z,1012.55
2023-05-06T14:51:27.641Z,1012.56
2023-05-06T14:52:27.699Z,1012.51
2023-05-06T14:53:27.849Z,1012.54
2023-05-06T14:54:27.963Z,1012.53
2023-05-06T14:55:28.094Z,1012.51
2023-05-06T14:56:28.211Z,1012.51
2023-05-06T14:57:28.345Z,1012.47
2023-05-06T14:58:28.532Z,1012.56
2023-05-06T14:59:28.613Z,1012.57
2023-05-06T15:00:28.733Z,1012.59
2023-05-06T15:01:28.875Z,1012.56
2023-05-06T15:02:28.999Z,1012.52
2023-05-06T15:03:29.094Z,1012.58
2023-05-06T15:04:29.170Z,1012.54
2023-05-06T15:05:29.426Z,1012.52
2023-05-06T15:06:29.473Z,1012.55
2023-05-06T15:07:29.575Z,1012.53
2023-05-06T15:08:29.826Z,1012.56
2023-05-06T15:09:29.904Z,1012.56
2023-05-06T15:10:29.980Z,1012.55
2023-05-06T15:11:30.118Z,1012.56
2023-05-06T15:12:30.214Z,1012.52
2023-05-06T15:13:30.446Z,1012.61
2023-05-06T15:14:30.509Z,1012.56
2023-05-06T15:15:30.650Z,1012.53
2023-05-06T15:16:30.796Z,1012.54
2023-05-06T15:17:30.932Z,1012.59
2023-05-06T15:18:30.995Z,1012.63
2023-05-06T15:19:31.111Z,1012.62
2023-05-06T15:20:31.236Z,1012.62
2023-05-06T15:21:31.368Z,1012.59
2023-05-06T15:22:31.476Z,1012.61
2023-05-06T15:23:31.658Z,1012.56
2023-05-06T15:24:31.740Z,1012.57
2023-05-06T15:25:36.040Z,1012.58
2023-05-06T15:26:34.063Z,1012.58
2023-05-06T15:27:32.176Z,1012.60
2023-05-06T15:28:32.324Z,1012.66
2023-05-06T15:29:32.432Z,1012.64
2023-05-06T15:30:32.520Z,1012.64
2023-05-06T15:31:32.754Z,1012.65
2023-05-06T15:32:32.860Z,1012.67
2023-05-06T15:33:32.957Z,1012.62
2023-05-06T15:34:33.112Z,1012.63
2023-05-06T15:35:33.250Z,1012.61
2023-05-06T15:36:33.375Z,1012.57
2023-05-06T15:37:33.527Z,1012.60
2023-05-06T15:38:33.632Z,1012.60
2023-05-06T15:39:33.816Z,1012.61
2023-05-06T15:40:33.905Z,1012.67
2023-05-06T15:41:34.062Z,1012.59
2023-05-06T15:42:34.219Z,1012.65
2023-05-06T15:43:37.822Z,1012.66
2023-05-06T15:44:34.473Z,1012.67
2023-05-06T15:45:34.583Z,1012.65
2023-05-06T15:46:34.752Z,1012.68
2023-05-06T15:47:34.897Z,1012.68
2023-05-06T15:48:34.980Z,1012.70
2023-05-06T15:49:51.507Z,1012.66
2023-05-06T15:50:36.500Z,1012.67
2023-05-06T15:51:35.349Z,1012.60
2023-05-06T15:52:35.443Z,1012.66
2023-05-06T15:53:35.546Z,1012.65
2023-05-06T15:54:37.366Z,1012.70
2023-05-06T15:55:45.141Z,1012.66
2023-05-06T15:56:40.932Z,1012.66
2023-05-06T15:59:21.054Z,1012.71
2023-05-06T15:59:51.769Z,1012.75
2023-05-06T16:00:51.863Z,1012.76
2023-05-06T16:12:33.956Z,1012.68
2023-05-06T16:13:34.030Z,1012.72
2023-05-06T16:14:34.224Z,1012.66
2023-05-06T16:15:34.436Z,1012.70
2023-05-06T16:16:34.541Z,1012.65
2023-05-06T16:17:34.599Z,1012.66
2023-05-06T16:18:34.724Z,1012.72
2023-05-06T16:19:34.876Z,1012.68
2023-05-06T16:20:34.992Z,1012.66
2023-05-06T16:21:35.146Z,1012.73
2023-05-06T16:22:35.224Z,1012.71
2023-05-06T16:23:35.499Z,1012.69
2023-05-06T16:24:36.486Z,1012.67
2023-05-06T16:25:35.715Z,1012.73
2023-05-06T16:26:35.836Z,1012.73
2023-05-06T16:27:35.946Z,1012.68
2023-05-06T16:28:37.400Z,1012.68
2023-05-06T16:29:36.218Z,1012.66
2023-05-06T16:30:36.397Z,1012.69
2023-05-06T16:31:36.575Z,1012.70
2023-05-06T16:32:37.694Z,1012.68
2023-05-06T16:33:36.800Z,1012.68